Time;durP1;ratioP1;P1;durP2;ratioP2;P2;SDS_P1;SDS_P2;PMS_P1;PMS_P2;Temp;Humidity;BMP_temperature;BMP_pressure;BME280_temperature;BME280_humidity;BME280_pressure;Samples;Min_cycle;Max_cycle;Signal;HPM_P1;HPM_P2
2022/07/05 00:00:51;;;;;;;2.30;2.07;;;16.10;99.90;;;;;;5032107;28;20252;-63
2022/07/05 00:03:17;;;;;;;2.83;1.93;;;16.10;99.90;;;;;;5032099;28;20210;-63
2022/07/05 00:05:44;;;;;;;3.30;2.27;;;16.10;99.90;;;;;;5031994;28;20210;-64
2022/07/05 00:08:11;;;;;;;3.40;2.20;;;16.00;99.90;;;;;;5031143;28;20222;-64
2022/07/05 00:10:38;;;;;;;3.23;2.00;;;16.00;99.90;;;;;;5032083;28;20240;-64
2022/07/05 00:13:06;;;;;;;3.73;2.37;;;16.00;99.90;;;;;;5031884;28;20353;-64
2022/07/05 00:15:33;;;;;;;3.93;2.20;;;15.90;99.90;;;;;;5032043;28;20210;-64
2022/07/05 00:18:01;;;;;;;2.77;1.80;;;15.90;99.90;;;;;;5031394;28;20226;-67
2022/07/05 00:20:28;;;;;;;5.67;2.07;;;15.90;99.90;;;;;;5031863;28;20206;-64
2022/07/05 00:22:54;;;;;;;4.87;2.23;;;15.90;99.90;;;;;;5031952;28;20202;-63
2022/07/05 00:25:21;;;;;;;3.60;2.13;;;16.00;99.90;;;;;;5031708;28;20206;-64
2022/07/05 00:27:48;;;;;;;3.77;2.33;;;15.90;99.90;;;;;;5031351;28;20237;-64
2022/07/05 00:30:15;;;;;;;4.60;2.40;;;15.80;99.90;;;;;;5031661;28;20256;-64
2022/07/05 00:32:42;;;;;;;3.33;2.37;;;15.80;99.90;;;;;;5031387;28;20214;-64
2022/07/05 00:35:10;;;;;;;2.70;2.10;;;15.80;99.90;;;;;;5031875;28;20206;-63
2022/07/05 00:37:37;;;;;;;4.70;2.50;;;15.80;1.00;;;;;;5031236;28;20230;-63
2022/07/05 00:40:05;;;;;;;2.77;2.00;;;15.70;1.00;;;;;;5031862;28;20272;-64
2022/07/05 00:42:32;;;;;;;2.60;2.00;;;15.70;1.00;;;;;;5031551;28;20254;-64
2022/07/05 00:44:59;;;;;;;3.70;2.27;;;15.70;1.00;;;;;;5031621;28;20776;-63
2022/07/05 00:47:25;;;;;;;5.57;2.00;;;15.70;1.00;;;;;;5031096;28;20633;-63
2022/07/05 00:49:52;;;;;;;3.30;2.50;;;15.60;1.00;;;;;;5031656;28;20673;-63
2022/07/05 00:52:20;;;;;;;5.27;2.67;;;15.60;1.00;;;;;;5031459;28;20709;-63
2022/07/05 00:54:48;;;;;;;2.43;2.17;;;15.50;1.00;;;;;;5031585;28;20742;-63
2022/07/05 00:57:14;;;;;;;4.80;2.37;;;15.40;1.00;;;;;;5031243;28;20728;-63
2022/07/05 00:59:41;;;;;;;3.40;2.00;;;15.30;1.00;;;;;;5031255;28;20873;-63
2022/07/05 01:02:08;;;;;;;3.67;2.53;;;15.30;1.00;;;;;;5031520;28;20622;-63
2022/07/05 01:04:34;;;;;;;4.43;2.50;;;15.30;1.00;;;;;;5031384;28;20618;-63
2022/07/05 01:07:03;;;;;;;2.40;2.17;;;15.30;1.00;;;;;;5031150;28;20293;-63
2022/07/05 01:09:31;;;;;;;3.37;2.30;;;15.30;1.00;;;;;;5031353;28;20213;-63
2022/07/05 01:11:58;;;;;;;2.40;2.20;;;15.30;1.00;;;;;;5031229;28;20226;-63
2022/07/05 01:14:25;;;;;;;4.07;2.30;;;15.30;1.00;;;;;;5031489;28;20249;-63
2022/07/05 01:16:54;;;;;;;5.03;1.90;;;15.30;1.00;;;;;;5030856;28;20210;-63
2022/07/05 01:19:21;;;;;;;3.90;2.63;;;15.30;1.00;;;;;;5031791;28;20260;-63
2022/07/05 01:21:49;;;;;;;3.03;2.43;;;15.20;1.00;;;;;;5035142;28;20260;-62
2022/07/05 01:24:19;;;;;;;3.87;2.20;;;15.20;1.00;;;;;;5035183;28;20994;-63
2022/07/05 01:26:48;;;;;;;4.03;2.43;;;15.20;1.00;;;;;;5034283;28;20693;-63
2022/07/05 01:29:15;;;;;;;3.47;2.37;;;15.20;1.00;;;;;;5035182;28;20732;-63
2022/07/05 01:31:43;;;;;;;3.17;2.30;;;15.20;7.70;;;;;;5035177;28;20239;-63
2022/07/05 01:34:10;;;;;;;2.53;2.20;;;15.20;21.00;;;;;;5035637;28;20206;-63
2022/07/05 01:36:38;;;;;;;4.10;2.20;;;15.10;45.20;;;;;;5035431;28;20214;-62
2022/07/05 01:39:06;;;;;;;3.37;2.13;;;15.20;71.90;;;;;;5035698;28;20260;-62
2022/07/05 01:41:35;;;;;;;3.33;2.33;;;15.20;98.00;;;;;;5035363;28;20229;-62
2022/07/05 01:44:02;;;;;;;3.50;2.23;;;15.10;99.90;;;;;;5036569;28;20202;-63
2022/07/05 01:46:32;;;;;;;2.47;2.27;;;15.10;99.90;;;;;;5036211;28;20619;-62
2022/07/05 01:49:04;;;;;;;2.47;2.10;;;15.10;99.90;;;;;;5037105;28;20226;-62
2022/07/05 01:51:35;;;;;;;2.90;2.10;;;15.10;99.90;;;;;;5036253;28;20268;-63
2022/07/05 01:54:01;;;;;;;2.97;2.40;;;15.20;99.90;;;;;;5034812;28;20210;-62
2022/07/05 01:56:28;;;;;;;6.03;2.50;;;15.20;99.90;;;;;;5034257;28;20214;-62
2022/07/05 01:58:57;;;;;;;5.23;1.83;;;15.10;99.90;;;;;;5034508;28;20264;-62
2022/07/05 02:01:35;;;;;;;3.00;2.23;;;15.10;99.90;;;;;;5034455;28;20248;-62
2022/07/05 02:04:04;;;;;;;2.90;2.20;;;15.10;99.90;;;;;;5034546;28;20216;-62
2022/07/05 02:06:32;;;;;;;3.27;2.40;;;15.10;99.90;;;;;;5033625;28;20260;-62
2022/07/05 02:08:58;;;;;;;4.10;2.53;;;15.10;99.90;;;;;;5034320;28;20230;-62
2022/07/05 02:11:25;;;;;;;4.93;2.40;;;15.10;99.90;;;;;;5034253;28;20356;-63
2022/07/05 02:13:52;;;;;;;4.47;2.37;;;15.10;99.90;;;;;;5034138;28;20206;-62
2022/07/05 02:16:23;;;;;;;2.90;2.17;;;15.10;99.90;;;;;;5033866;28;20213;-62
2022/07/05 02:18:49;;;;;;;4.23;2.60;;;15.10;99.90;;;;;;5033782;28;20230;-63
2022/07/05 02:21:16;;;;;;;4.00;2.40;;;15.10;99.90;;;;;;5034191;28;20210;-62
2022/07/05 02:23:43;;;;;;;4.07;2.30;;;15.10;99.90;;;;;;5033885;28;20264;-62
2022/07/05 02:26:09;;;;;;;4.20;2.20;;;15.10;99.90;;;;;;5033525;28;20711;-63
2022/07/05 02:28:36;;;;;;;2.47;2.07;;;15.00;1.00;;;;;;5033714;28;20287;-62
2022/07/05 02:31:03;;;;;;;4.00;2.13;;;15.00;1.00;;;;;;5033238;28;20214;-63
2022/07/05 02:33:31;;;;;;;9.10;2.40;;;14.90;1.00;;;;;;5033620;28;20226;-62
2022/07/05 02:35:58;;;;;;;3.80;2.27;;;14.90;1.00;;;;;;5033373;28;20214;-62
2022/07/05 02:38:24;;;;;;;2.77;2.00;;;14.90;12.60;;;;;;5033479;28;20227;-62
2022/07/05 02:40:51;;;;;;;2.87;2.23;;;14.80;53.90;;;;;;5033582;28;20268;-62
2022/07/05 02:43:17;;;;;;;2.97;1.80;;;14.80;99.90;;;;;;5033593;28;20257;-63
2022/07/05 02:45:44;;;;;;;5.10;2.30;;;14.80;99.90;;;;;;5033322;28;20206;-62
2022/07/05 02:48:11;;;;;;;3.90;2.17;;;14.70;99.90;;;;;;5032949;28;20633;-62
2022/07/05 02:50:39;;;;;;;2.73;1.70;;;14.70;99.90;;;;;;5033901;28;20214;-62
2022/07/05 02:53:05;;;;;;;2.90;2.13;;;14.70;1.00;;;;;;5033179;28;20229;-62
2022/07/05 02:55:32;;;;;;;5.23;2.20;;;14.70;99.90;;;;;;5033439;28;20210;-63
2022/07/05 02:57:59;;;;;;;3.50;2.17;;;14.70;99.90;;;;;;5032734;28;20236;-62
2022/07/05 03:00:25;;;;;;;3.40;2.30;;;14.70;99.90;;;;;;5033160;28;20217;-63
2022/07/05 03:02:52;;;;;;;2.50;2.30;;;14.60;99.90;;;;;;5032965;28;20206;-63
2022/07/05 03:05:19;;;;;;;3.27;2.10;;;14.60;99.90;;;;;;5033259;28;20280;-63
2022/07/05 03:07:47;;;;;;;4.80;2.00;;;14.60;99.90;;;;;;5032912;28;20276;-64
2022/07/05 03:10:13;;;;;;;2.93;2.33;;;14.50;40.00;;;;;;5033017;28;20268;-63
2022/07/05 03:12:40;;;;;;;3.77;2.50;;;14.50;99.90;;;;;;5032913;28;20226;-63
2022/07/05 03:15:08;;;;;;;3.33;2.30;;;14.50;99.90;;;;;;5032900;28;20206;-63
2022/07/05 03:17:35;;;;;;;3.47;2.20;;;14.50;99.90;;;;;;5032716;28;20280;-64
2022/07/05 03:20:01;;;;;;;5.93;2.40;;;14.50;99.90;;;;;;5032938;28;20202;-64
2022/07/05 03:22:28;;;;;;;5.53;3.20;;;14.60;2.00;;;;;;5032951;28;20241;-64
2022/07/05 03:24:56;;;;;;;6.53;2.47;;;14.50;1.00;;;;;;5032899;28;20288;-64
2022/07/05 03:27:22;;;;;;;5.83;2.50;;;14.50;1.00;;;;;;5032141;28;20651;-65
2022/07/05 03:29:49;;;;;;;4.07;2.47;;;14.50;99.90;;;;;;5032481;28;20673;-65
2022/07/05 03:32:16;;;;;;;3.00;2.63;;;14.50;1.00;;;;;;5032573;28;20276;-64
2022/07/05 03:34:42;;;;;;;4.00;2.70;;;14.60;99.90;;;;;;5032661;28;20211;-64
2022/07/05 03:37:09;;;;;;;4.07;2.40;;;14.60;1.00;;;;;;5032094;28;20226;-64
2022/07/05 03:39:36;;;;;;;4.50;2.53;;;14.60;1.00;;;;;;5032553;28;20260;-64
2022/07/05 03:42:04;;;;;;;4.90;2.57;;;14.60;99.90;;;;;;5032022;28;20209;-64
2022/07/05 03:44:32;;;;;;;4.27;2.60;;;14.60;99.90;;;;;;5032574;28;20212;-64
2022/07/05 03:46:59;;;;;;;4.33;2.47;;;14.60;1.00;;;;;;5032271;28;20319;-63
2022/07/05 03:49:26;;;;;;;4.80;2.60;;;14.60;1.00;;;;;;5032374;28;20252;-63
2022/07/05 03:51:52;;;;;;;5.03;3.57;;;14.50;1.00;;;;;;5032654;28;20287;-63
2022/07/05 03:54:19;;;;;;;7.07;5.17;;;14.50;1.00;;;;;;5032134;28;20231;-64
2022/07/05 03:56:46;;;;;;;8.67;5.57;;;14.50;1.00;;;;;;5031686;28;20270;-64
2022/07/05 03:59:14;;;;;;;4.00;2.87;;;14.50;1.00;;;;;;5032295;28;20284;-63
2022/07/05 04:01:40;;;;;;;4.80;2.70;;;14.40;1.00;;;;;;5032940;28;20214;-63
2022/07/05 04:04:08;;;;;;;6.43;2.97;;;14.40;1.00;;;;;;5032980;28;20212;-63
2022/07/05 04:06:34;;;;;;;5.53;2.80;;;14.40;1.00;;;;;;5031778;28;20234;-64
2022/07/05 04:09:01;;;;;;;4.90;3.20;;;14.40;20.00;;;;;;5032184;28;20211;-63
2022/07/05 04:11:28;;;;;;;4.23;3.17;;;14.40;99.90;;;;;;5031789;28;20826;-63
2022/07/05 04:13:54;;;;;;;4.80;2.93;;;14.40;99.90;;;;;;5031934;28;20711;-63
2022/07/05 04:16:22;;;;;;;3.57;2.73;;;14.40;99.90;;;;;;5031685;28;20217;-64
2022/07/05 04:18:49;;;;;;;6.23;2.90;;;14.40;99.90;;;;;;5032023;28;20228;-64
2022/07/05 04:21:16;;;;;;;4.47;2.77;;;14.30;99.90;;;;;;5031935;28;20209;-64
2022/07/05 04:23:43;;;;;;;3.13;2.70;;;14.20;1.00;;;;;;5031649;28;20278;-63
2022/07/05 04:26:09;;;;;;;3.73;2.77;;;14.30;1.00;;;;;;5031345;28;20213;-64
2022/07/05 04:28:36;;;;;;;6.37;2.63;;;14.30;1.00;;;;;;5031547;28;20234;-64
2022/07/05 04:31:03;;;;;;;3.73;2.43;;;14.30;1.00;;;;;;5031777;28;20667;-61
2022/07/05 04:33:31;;;;;;;3.17;2.33;;;14.30;1.00;;;;;;5031764;28;20229;-61
2022/07/05 04:35:58;;;;;;;3.93;2.50;;;14.40;15.80;;;;;;5031589;28;20687;-61
2022/07/05 04:38:24;;;;;;;5.60;2.67;;;14.60;22.70;;;;;;5031468;28;20229;-61
2022/07/05 04:40:51;;;;;;;3.50;2.40;;;14.70;17.70;;;;;;5031754;28;20210;-61
2022/07/05 04:43:17;;;;;;;5.63;2.50;;;14.90;11.30;;;;;;5018183;28;20253;-62
2022/07/05 04:45:44;;;;;;;4.23;2.80;;;15.10;1.30;;;;;;4998748;28;20273;-62
2022/07/05 04:48:11;;;;;;;4.03;2.20;;;15.30;1.00;;;;;;4991784;28;20575;-62
2022/07/05 04:50:39;;;;;;;2.67;2.10;;;15.40;1.00;;;;;;4991930;28;20212;-62
2022/07/05 04:53:05;;;;;;;2.53;2.20;;;15.60;1.00;;;;;;4991850;28;20227;-62
2022/07/05 04:55:32;;;;;;;4.67;2.87;;;15.70;1.00;;;;;;4996098;28;20203;-63
2022/07/05 04:57:59;;;;;;;5.80;3.43;;;15.70;1.00;;;;;;5007852;28;20230;-63
2022/07/05 05:00:25;;;;;;;3.87;2.90;;;15.60;1.00;;;;;;5016148;28;20210;-62
2022/07/05 05:02:52;;;;;;;9.33;3.90;;;15.50;1.00;;;;;;5015516;28;20733;-63
2022/07/05 05:05:19;;;;;;;4.60;3.53;;;15.30;1.00;;;;;;5016096;28;20191;-64
2022/07/05 05:07:47;;;;;;;6.07;3.70;;;15.20;1.00;;;;;;5015258;28;20235;-63
2022/07/05 05:10:14;;;;;;;5.30;3.63;;;15.30;1.00;;;;;;5015786;28;20261;-63
2022/07/05 05:12:41;;;;;;;6.17;3.87;;;15.30;1.00;;;;;;5015796;28;20214;-63
2022/07/05 05:15:09;;;;;;;4.37;3.70;;;15.30;1.00;;;;;;5015252;28;20407;-62
2022/07/05 05:17:38;;;;;;;5.10;3.97;;;15.40;1.00;;;;;;5015621;28;20231;-63
2022/07/05 05:20:06;;;;;;;5.30;4.00;;;15.50;1.00;;;;;;5015175;28;20294;-62
2022/07/05 05:22:33;;;;;;;6.60;4.10;;;15.60;1.00;;;;;;5015707;28;20641;-63
2022/07/05 05:25:01;;;;;;;6.10;4.20;;;15.70;1.00;;;;;;5015368;28;20203;-63
2022/07/05 05:27:28;;;;;;;5.73;3.40;;;15.80;1.00;;;;;;5015005;28;20238;-63
2022/07/05 05:29:54;;;;;;;5.60;3.97;;;15.90;99.90;;;;;;5011033;28;20204;-65
2022/07/05 05:32:21;;;;;;;4.37;3.50;;;16.00;99.90;;;;;;5002527;28;20553;-67
2022/07/05 05:34:48;;;;;;;6.20;3.80;;;16.10;99.90;;;;;;5014118;28;20234;-64
2022/07/05 05:37:15;;;;;;;7.47;3.40;;;16.10;1.00;;;;;;5014139;28;20649;-64
2022/07/05 05:39:41;;;;;;;6.03;3.53;;;16.20;31.80;;;;;;5014898;28;20203;-64
2022/07/05 05:42:09;;;;;;;5.30;4.27;;;16.20;1.00;;;;;;5014564;28;20214;-65
2022/07/05 05:44:36;;;;;;;7.10;3.50;;;16.20;1.00;;;;;;5001329;28;20211;-62
2022/07/05 05:47:03;;;;;;;8.03;3.70;;;16.30;1.00;;;;;;4994553;28;20227;-63
2022/07/05 05:49:30;;;;;;;5.90;3.60;;;16.30;1.00;;;;;;5000829;28;20600;-63
2022/07/05 05:51:56;;;;;;;4.37;3.97;;;16.20;99.90;;;;;;4994856;28;20626;-62
2022/07/05 05:54:23;;;;;;;9.00;3.80;;;16.20;1.00;;;;;;5012608;28;20717;-63
2022/07/05 05:56:50;;;;;;;7.47;3.80;;;16.10;1.00;;;;;;5013955;28;20342;-63
2022/07/05 05:59:18;;;;;;;6.97;4.20;;;16.20;1.00;;;;;;5014196;28;20215;-62
2022/07/05 06:01:44;;;;;;;6.53;4.00;;;16.30;1.00;;;;;;5013486;28;20203;-62
2022/07/05 06:04:11;;;;;;;6.30;3.30;;;16.30;99.90;;;;;;5014154;28;20207;-62
2022/07/05 06:06:38;;;;;;;3.93;3.23;;;16.40;99.90;;;;;;5013110;28;20207;-62
2022/07/05 06:09:04;;;;;;;4.43;2.90;;;16.50;99.90;;;;;;5013809;28;20825;-63
2022/07/05 06:11:31;;;;;;;7.57;3.90;;;16.60;99.90;;;;;;5013833;28;20211;-63
2022/07/05 06:13:58;;;;;;;4.07;3.30;;;16.80;50.50;;;;;;5013296;28;20230;-62
2022/07/05 06:16:26;;;;;;;5.63;3.27;;;16.90;1.00;;;;;;5005733;28;20278;-62
2022/07/05 06:18:52;;;;;;;4.80;3.50;;;17.00;99.90;;;;;;4994330;28;20286;-63
2022/07/05 06:21:19;;;;;;;7.33;3.80;;;17.10;97.90;;;;;;4993778;28;20207;-62
2022/07/05 06:23:46;;;;;;;4.03;3.17;;;17.20;69.30;;;;;;4994079;28;20207;-62
2022/07/05 06:26:13;;;;;;;5.10;3.27;;;17.40;1.00;;;;;;4993728;28;20223;-64
2022/07/05 06:28:39;;;;;;;5.50;2.80;;;17.30;1.00;;;;;;4996200;28;20259;-64
2022/07/05 06:31:06;;;;;;;3.80;2.90;;;17.40;1.00;;;;;;4993949;28;20282;-63
2022/07/05 06:33:34;;;;;;;5.70;2.90;;;17.50;99.90;;;;;;4993732;28;20730;-64
2022/07/05 06:36:01;;;;;;;5.33;2.60;;;17.60;99.90;;;;;;4993405;28;20745;-64
2022/07/05 06:38:27;;;;;;;5.17;2.73;;;17.70;99.90;;;;;;4993610;28;20235;-63
2022/07/05 06:40:56;;;;;;;4.63;2.70;;;17.70;99.90;;;;;;4993883;28;20207;-63
2022/07/05 06:43:23;;;;;;;5.30;2.60;;;17.80;99.90;;;;;;4993187;28;20208;-63
2022/07/05 06:45:50;;;;;;;4.27;2.27;;;17.90;99.90;;;;;;4993843;28;20620;-63
2022/07/05 06:48:17;;;;;;;5.60;2.40;;;18.00;99.90;;;;;;4993840;28;20235;-63
2022/07/05 06:50:45;;;;;;;3.67;2.10;;;18.00;99.90;;;;;;4993255;28;20656;-62
2022/07/05 06:53:12;;;;;;;3.40;1.90;;;18.10;99.90;;;;;;4993080;28;20215;-62
2022/07/05 06:55:44;;;;;;;1.80;1.33;;;18.20;99.90;;;;;;4993169;28;20204;-64
2022/07/05 06:58:11;;;;;;;2.87;1.87;;;18.40;99.90;;;;;;4992935;28;20342;-63
2022/07/05 07:00:38;;;;;;;8.27;1.67;;;18.50;99.90;;;;;;4993575;28;20296;-63
2022/07/05 07:03:04;;;;;;;3.77;2.13;;;18.70;99.90;;;;;;4992930;28;20216;-63
2022/07/05 07:05:31;;;;;;;2.87;1.50;;;18.60;99.90;;;;;;4993098;28;20678;-63
2022/07/05 07:10:43;;;;;;;3.47;2.00;;;18.70;99.90;;;;;;4993205;28;20642;-63
2022/07/05 07:13:10;;;;;;;4.27;2.37;;;18.60;99.90;;;;;;4992850;28;20262;-62
2022/07/05 07:15:38;;;;;;;6.03;1.70;;;18.70;99.90;;;;;;4992825;28;20207;-63
2022/07/05 07:18:05;;;;;;;4.33;1.90;;;18.90;99.90;;;;;;4992959;28;20234;-62
2022/07/05 07:20:32;;;;;;;4.33;2.40;;;19.20;99.90;;;;;;4992628;28;20208;-63
2022/07/05 07:23:00;;;;;;;5.33;2.53;;;19.30;99.90;;;;;;4992580;28;20269;-61
2022/07/05 07:25:26;;;;;;;3.07;2.07;;;19.40;99.90;;;;;;4992442;28;20270;-61
2022/07/05 07:27:55;;;;;;;4.77;2.23;;;19.40;99.90;;;;;;4992260;28;20662;-61
2022/07/05 07:30:31;;;;;;;6.07;2.13;;;19.60;99.90;;;;;;4992826;28;20214;-62
2022/07/05 07:32:58;;;;;;;5.33;2.17;;;19.60;99.90;;;;;;5009269;28;20222;-62
2022/07/05 07:35:25;;;;;;;3.50;2.10;;;19.80;99.90;;;;;;5011939;28;20365;-61
2022/07/05 07:37:52;;;;;;;3.33;2.40;;;20.10;99.90;;;;;;5011366;28;20930;-62
2022/07/05 07:40:20;;;;;;;6.67;2.47;;;20.30;99.90;;;;;;5012543;28;20211;-64
2022/07/05 07:42:46;;;;;;;5.47;1.90;;;20.40;99.90;;;;;;5012129;28;20636;-65
2022/07/05 07:45:13;;;;;;;4.10;2.10;;;20.30;99.90;;;;;;5011969;28;20636;-63
2022/07/05 07:47:40;;;;;;;2.77;1.90;;;20.40;99.90;;;;;;5011587;28;20317;-63
2022/07/05 07:50:07;;;;;;;2.60;1.80;;;20.30;99.90;;;;;;5011598;28;20211;-64
2022/07/05 07:52:34;;;;;;;3.17;2.30;;;20.10;99.90;;;;;;4996954;28;20801;-63
2022/07/05 07:55:01;;;;;;;5.30;2.03;;;19.90;99.90;;;;;;4992560;28;20323;-63
2022/07/05 07:57:30;;;;;;;3.43;1.67;;;19.90;99.90;;;;;;4991676;28;20231;-61
2022/07/05 07:59:56;;;;;;;5.33;1.67;;;20.00;99.90;;;;;;4992453;28;20212;-61
2022/07/05 08:02:23;;;;;;;2.40;1.40;;;20.20;99.90;;;;;;5008951;28;20199;-61
2022/07/05 08:04:50;;;;;;;3.37;1.93;;;20.30;99.90;;;;;;5011739;28;20203;-61
2022/07/05 08:07:18;;;;;;;2.70;1.80;;;20.40;99.90;;;;;;5011041;28;20235;-60
2022/07/05 08:09:45;;;;;;;2.13;1.40;;;20.70;99.90;;;;;;5011838;28;20238;-61
2022/07/05 08:12:12;;;;;;;7.73;2.33;;;20.70;99.90;;;;;;5011697;28;20273;-57
2022/07/05 08:14:40;;;;;;;3.13;1.77;;;20.60;99.90;;;;;;5011239;28;20234;-61
2022/07/05 08:17:08;;;;;;;4.00;1.83;;;20.70;99.90;;;;;;5011232;28;20222;-59
2022/07/05 08:22:20;;;;;;;4.07;1.93;;;21.50;99.90;;;;;;5011716;28;20206;-63
2022/07/05 08:24:47;;;;;;;4.47;2.10;;;21.60;99.90;;;;;;5011861;28;20257;-63
2022/07/05 08:27:14;;;;;;;4.53;1.50;;;21.50;99.90;;;;;;5010642;28;20262;-61
2022/07/05 08:29:42;;;;;;;3.30;2.10;;;21.80;99.90;;;;;;5010938;28;20248;-61
2022/07/05 08:32:09;;;;;;;4.37;1.63;;;21.60;99.90;;;;;;5011103;28;20269;-61
2022/07/05 08:34:37;;;;;;;5.77;2.13;;;21.60;99.90;;;;;;5011671;28;20281;-61
2022/07/05 08:37:04;;;;;;;5.43;2.10;;;21.80;99.90;;;;;;5011332;28;20231;-61
2022/07/05 08:39:31;;;;;;;4.07;2.50;;;21.70;99.90;;;;;;5011080;28;20214;-61
2022/07/05 08:41:59;;;;;;;3.23;2.50;;;21.40;99.90;;;;;;5011623;28;20210;-61
2022/07/05 08:44:28;;;;;;;3.40;2.10;;;21.30;99.90;;;;;;5011016;28;20205;-61
2022/07/05 08:46:58;;;;;;;3.50;2.47;;;21.10;99.90;;;;;;5011337;28;20206;-61
2022/07/05 08:49:25;;;;;;;5.50;2.40;;;21.60;99.90;;;;;;5011126;28;20210;-61
2022/07/05 08:51:53;;;;;;;6.80;2.03;;;21.70;99.90;;;;;;5011037;28;20618;-62
2022/07/05 08:54:21;;;;;;;6.97;2.30;;;21.80;99.90;;;;;;5010911;28;20230;-62
2022/07/05 08:56:47;;;;;;;3.73;2.53;;;22.00;99.90;;;;;;5010859;28;20584;-61
2022/07/05 08:59:14;;;;;;;4.20;2.80;;;22.10;99.90;;;;;;5010982;28;20211;-61
2022/07/05 09:01:42;;;;;;;4.50;2.73;;;22.10;99.90;;;;;;5011225;28;20234;-61
2022/07/05 09:06:57;;;;;;;5.10;2.10;;;21.60;99.90;;;;;;5007915;28;20227;-64
2022/07/05 09:09:26;;;;;;;4.37;2.10;;;21.30;99.90;;;;;;5010644;28;20245;-63
2022/07/05 09:11:53;;;;;;;4.77;1.70;;;21.00;99.90;;;;;;5011359;28;20215;-64
2022/07/05 09:14:22;;;;;;;4.67;1.73;;;21.10;99.90;;;;;;5010541;28;20227;-63
2022/07/05 09:16:48;;;;;;;3.33;2.00;;;21.20;99.90;;;;;;5010798;28;20788;-63
2022/07/05 09:19:17;;;;;;;5.57;2.17;;;21.10;99.90;;;;;;5011121;28;20693;-63
2022/07/05 09:21:44;;;;;;;4.93;1.80;;;21.20;99.90;;;;;;5010967;28;20207;-62
2022/07/05 09:24:12;;;;;;;3.50;2.37;;;21.10;99.90;;;;;;5011165;28;20207;-66
2022/07/05 09:26:41;;;;;;;3.50;1.87;;;20.80;99.90;;;;;;5010106;28;20207;-66
2022/07/05 09:29:09;;;;;;;7.90;2.10;;;21.10;99.90;;;;;;5011219;28;20207;-63
2022/07/05 09:31:37;;;;;;;4.10;2.50;;;21.50;99.90;;;;;;5010797;28;20226;-62
2022/07/05 09:34:05;;;;;;;4.40;2.43;;;21.80;99.90;;;;;;5010425;28;20254;-63
2022/07/05 09:36:54;;;;;;;4.30;2.17;;;21.70;99.90;;;;;;5011009;28;20625;-59
2022/07/05 09:39:37;;;;;;;4.30;2.30;;;22.10;99.90;;;;;;5010930;28;20211;-60
2022/07/05 09:42:10;;;;;;;5.40;2.17;;;22.30;99.90;;;;;;5013788;28;20213;-67
2022/07/05 09:44:38;;;;;;;3.70;1.80;;;22.50;99.90;;;;;;5014025;28;20211;-65
2022/07/05 09:47:10;;;;;;;4.47;2.00;;;22.50;99.90;;;;;;5014315;28;20234;-67
2022/07/05 09:49:37;;;;;;;5.00;2.07;;;22.00;99.90;;;;;;5014424;28;20795;-66
2022/07/05 09:52:06;;;;;;;3.83;1.90;;;22.10;99.90;;;;;;5013832;28;20218;-64
2022/07/05 09:54:33;;;;;;;3.60;1.90;;;21.40;99.90;;;;;;5013751;28;20277;-63
2022/07/05 09:56:59;;;;;;;1.93;1.60;;;21.40;99.90;;;;;;5013258;28;20254;-66
2022/07/05 09:59:26;;;;;;;2.33;1.77;;;21.30;99.90;;;;;;5013777;28;20214;-65
2022/07/05 10:01:53;;;;;;;3.23;1.30;;;21.40;99.90;;;;;;5013937;28;20590;-64
2022/07/05 10:04:20;;;;;;;3.27;1.57;;;21.50;99.90;;;;;;5013676;28;20644;-63
2022/07/05 10:06:47;;;;;;;2.17;1.40;;;21.70;99.90;;;;;;5013329;28;20257;-64
2022/07/05 10:09:16;;;;;;;4.53;1.40;;;21.50;99.90;;;;;;5013216;28;20211;-63
2022/07/05 10:11:44;;;;;;;3.40;1.53;;;21.40;99.90;;;;;;5013402;28;20738;-64
2022/07/05 10:14:15;;;;;;;2.37;1.40;;;21.50;99.90;;;;;;5013186;28;20206;-64
2022/07/05 10:16:46;;;;;;;4.40;1.40;;;21.80;99.90;;;;;;5013878;28;20206;-64
2022/07/05 10:19:18;;;;;;;3.93;1.43;;;22.20;99.90;;;;;;5013727;28;20203;-64
2022/07/05 10:21:46;;;;;;;2.20;1.10;;;22.60;99.90;;;;;;5013718;28;20727;-64
2022/07/05 10:24:17;;;;;;;3.20;1.43;;;23.10;99.90;;;;;;5013387;28;20254;-64
2022/07/05 10:26:45;;;;;;;1.80;1.20;;;23.10;99.90;;;;;;5012887;28;20290;-64
2022/07/05 10:29:13;;;;;;;2.33;1.60;;;22.90;99.90;;;;;;5013659;28;20261;-62
2022/07/05 10:31:40;;;;;;;4.47;1.47;;;22.60;99.90;;;;;;5013382;28;20214;-63
2022/07/05 10:34:10;;;;;;;1.23;1.07;;;22.20;99.90;;;;;;5012660;28;20210;-64
2022/07/05 10:36:38;;;;;;;5.70;1.50;;;22.30;99.90;;;;;;5013358;28;20206;-64
2022/07/05 10:39:06;;;;;;;2.37;1.20;;;22.30;99.90;;;;;;5012828;28;20211;-64
2022/07/05 10:41:35;;;;;;;1.77;1.03;;;22.50;99.90;;;;;;5013047;28;20670;-64
2022/07/05 10:44:02;;;;;;;3.93;1.30;;;22.40;99.90;;;;;;5012626;28;20322;-64
2022/07/05 10:46:36;;;;;;;1.40;1.10;;;22.30;99.90;;;;;;5013016;28;20210;-65
2022/07/05 10:49:10;;;;;;;2.13;1.10;;;22.60;99.90;;;;;;5013052;28;20297;-66
2022/07/05 10:51:37;;;;;;;2.03;1.30;;;22.70;99.90;;;;;;5013029;28;20203;-64
2022/07/05 10:54:04;;;;;;;2.27;1.00;;;22.80;99.90;;;;;;5013511;28;20214;-62
2022/07/05 10:56:31;;;;;;;2.67;1.50;;;22.90;99.90;;;;;;5012725;28;20230;-62
2022/07/05 10:59:09;;;;;;;3.27;1.13;;;22.60;99.90;;;;;;5013121;28;20230;-62
2022/07/05 11:01:37;;;;;;;3.60;1.27;;;22.60;99.90;;;;;;5012914;28;20708;-61
2022/07/05 11:04:29;;;;;;;2.50;1.20;;;22.40;99.90;;;;;;5012480;28;20310;-61
2022/07/05 11:06:57;;;;;;;2.07;1.40;;;22.80;99.90;;;;;;5013193;28;20670;-63
2022/07/05 11:09:24;;;;;;;2.70;1.10;;;23.00;99.90;;;;;;5012409;28;20289;-64
2022/07/05 11:12:08;;;;;;;5.53;1.30;;;23.50;99.90;;;;;;5012388;28;20207;-62
2022/07/05 11:14:40;;;;;;;2.83;1.50;;;23.80;99.90;;;;;;5012191;28;20214;-65
2022/07/05 11:17:29;;;;;;;6.00;1.50;;;23.30;99.90;;;;;;5013542;28;20227;-63
2022/07/05 11:20:12;;;;;;;1.73;1.40;;;22.50;99.90;;;;;;5012786;28;20211;-64
2022/07/05 11:22:41;;;;;;;4.77;1.40;;;21.70;99.90;;;;;;5011872;28;20207;-62
2022/07/05 11:25:11;;;;;;;4.50;1.17;;;21.60;99.90;;;;;;5012475;28;20199;-62
2022/07/05 11:27:58;;;;;;;3.73;1.10;;;21.70;99.90;;;;;;5011733;28;20235;-65
2022/07/05 11:30:26;;;;;;;3.97;1.10;;;22.00;99.90;;;;;;5012426;28;20206;-64
2022/07/05 11:32:52;;;;;;;1.23;1.00;;;22.40;99.90;;;;;;5011579;28;20543;-62
2022/07/05 11:35:20;;;;;;;3.33;1.27;;;22.80;99.90;;;;;;5012001;28;20238;-61
2022/07/05 11:38:06;;;;;;;2.70;1.33;;;23.10;99.90;;;;;;5012234;28;20226;-61
2022/07/05 11:40:34;;;;;;;2.63;1.07;;;23.20;99.90;;;;;;5012189;28;20207;-60
2022/07/05 11:43:02;;;;;;;1.10;1.00;;;23.10;99.90;;;;;;5011757;28;20241;-60
2022/07/05 11:45:31;;;;;;;2.33;1.07;;;22.80;99.90;;;;;;5011577;28;20235;-61
2022/07/05 11:47:58;;;;;;;5.43;1.70;;;22.50;99.90;;;;;;5011960;28;20227;-59
2022/07/05 11:50:33;;;;;;;3.23;1.50;;;22.50;99.90;;;;;;5012176;28;20206;-64
2022/07/05 11:53:00;;;;;;;3.10;1.43;;;22.40;99.90;;;;;;5011938;28;20206;-66
2022/07/05 11:55:28;;;;;;;4.67;1.47;;;22.10;99.90;;;;;;5012017;28;20226;-65
2022/07/05 11:57:56;;;;;;;3.97;1.50;;;22.00;99.90;;;;;;5011250;28;20227;-63
2022/07/05 12:00:32;;;;;;;2.83;1.93;;;21.90;99.90;;;;;;5012465;28;20587;-65
2022/07/05 12:02:59;;;;;;;3.43;1.73;;;21.90;99.90;;;;;;5011186;28;20214;-64
2022/07/05 12:05:32;;;;;;;2.43;1.60;;;22.10;99.90;;;;;;5011985;28;20357;-64
2022/07/05 12:07:59;;;;;;;2.60;1.77;;;22.40;99.90;;;;;;5011249;28;20793;-62
2022/07/05 12:13:10;;;;;;;4.63;1.77;;;22.80;99.90;;;;;;5011305;28;20201;-62
2022/07/05 12:15:39;;;;;;;2.70;1.30;;;22.90;99.90;;;;;;5011708;28;20226;-62
2022/07/05 12:18:08;;;;;;;3.40;1.50;;;23.20;99.90;;;;;;5011395;28;20262;-62
2022/07/05 12:20:36;;;;;;;3.83;1.60;;;23.60;99.90;;;;;;5011494;28;20242;-62
2022/07/05 12:23:03;;;;;;;3.10;1.60;;;23.80;99.90;;;;;;5010931;28;20203;-65
2022/07/05 12:25:32;;;;;;;4.33;1.77;;;24.00;99.90;;;;;;5011515;28;20207;-64
2022/07/05 12:28:00;;;;;;;18.93;13.20;;;23.70;99.90;;;;;;5010770;28;20235;-61
2022/07/05 12:30:29;;;;;;;2.67;1.20;;;23.60;99.90;;;;;;5011798;28;20210;-62
2022/07/05 12:32:59;;;;;;;5.87;1.50;;;23.30;99.90;;;;;;5010745;28;20298;-61
2022/07/05 12:35:35;;;;;;;4.80;1.80;;;23.40;99.90;;;;;;5011209;28;20264;-61
2022/07/05 12:38:06;;;;;;;2.77;1.17;;;23.50;99.90;;;;;;5011009;28;20222;-62
2022/07/05 12:40:33;;;;;;;4.93;1.20;;;23.70;99.90;;;;;;5011486;28;20678;-61
2022/07/05 12:43:05;;;;;;;4.13;1.50;;;23.80;99.90;;;;;;5011171;28;20207;-62
2022/07/05 12:45:32;;;;;;;4.10;1.50;;;23.40;99.90;;;;;;5011096;28;20203;-61
2022/07/05 12:48:01;;;;;;;2.13;1.20;;;22.80;99.90;;;;;;5010745;28;20764;-61
2022/07/05 12:50:30;;;;;;;2.63;1.13;;;22.80;99.90;;;;;;5011737;28;20215;-62
2022/07/05 12:58:01;;;;;;;1.93;1.43;;;23.10;99.90;;;;;;5011078;28;20207;-61
2022/07/05 12:58:33;;;;;;;2.10;1.10;;;23.80;99.90;;;;;;5010645;28;20615;-62
2022/07/05 13:01:00;;;;;;;1.57;1.07;;;23.90;99.90;;;;;;5011686;28;20211;-61
2022/07/05 13:03:28;;;;;;;2.10;1.10;;;23.40;99.90;;;;;;5010486;28;20572;-61
2022/07/05 13:06:03;;;;;;;3.30;1.20;;;23.40;99.90;;;;;;5010891;28;20666;-61
2022/07/05 13:08:30;;;;;;;1.40;1.00;;;23.20;99.90;;;;;;5011069;28;20309;-61